sensor_id;sensor_type;location;lat;lon;timestamp;temperature;humidity
9043;DHT22;4556;49.150;8.808;2023-07-09T00:00:57;18.40;99.90
9043;DHT22;4556;49.150;8.808;2023-07-09T00:17:10;18.20;99.90
9043;DHT22;4556;49.150;8.808;2023-07-09T00:29:26;17.90;99.90
9043;DHT22;4556;49.150;8.808;2023-07-09T00:31:57;17.80;99.90
9043;DHT22;4556;49.150;8.808;2023-07-09T00:34:29;18.30;99.90
9043;DHT22;4556;49.150;8.808;2023-07-09T00:43:24;17.70;99.90
9043;DHT22;4556;49.150;8.808;2023-07-09T00:46:11;17.80;99.90
9043;DHT22;4556;49.150;8.808;2023-07-09T00:48:56;17.90;99.90
9043;DHT22;4556;49.150;8.808;2023-07-09T00:52:12;17.90;99.90
9043;DHT22;4556;49.150;8.808;2023-07-09T00:58:38;17.80;99.90
9043;DHT22;4556;49.150;8.808;2023-07-09T01:01:09;17.80;99.90
9043;DHT22;4556;49.150;8.808;2023-07-09T01:07:02;17.60;99.90
9043;DHT22;4556;49.150;8.808;2023-07-09T01:09:29;17.50;99.90
9043;DHT22;4556;49.150;8.808;2023-07-09T01:12:08;17.80;99.90
9043;DHT22;4556;49.150;8.808;2023-07-09T01:15:17;17.50;99.90
9043;DHT22;4556;49.150;8.808;2023-07-09T01:18:13;17.60;99.90
9043;DHT22;4556;49.150;8.808;2023-07-09T01:21:01;17.60;99.90
9043;DHT22;4556;49.150;8.808;2023-07-09T01:23:29;17.70;99.90
9043;DHT22;4556;49.150;8.808;2023-07-09T01:26:07;17.60;99.90
9043;DHT22;4556;49.150;8.808;2023-07-09T01:28:40;17.40;99.90
9043;DHT22;4556;49.150;8.808;2023-07-09T01:31:17;17.30;99.90
9043;DHT22;4556;49.150;8.808;2023-07-09T01:37:37;17.20;99.90
9043;DHT22;4556;49.150;8.808;2023-07-09T01:40:08;17.20;99.90
9043;DHT22;4556;49.150;8.808;2023-07-09T01:43:14;17.30;99.90
9043;DHT22;4556;49.150;8.808;2023-07-09T01:46:31;17.30;99.90
9043;DHT22;4556;49.150;8.808;2023-07-09T01:49:33;17.20;99.90
9043;DHT22;4556;49.150;8.808;2023-07-09T01:52:01;17.00;99.90
9043;DHT22;4556;49.150;8.808;2023-07-09T01:54:45;17.20;99.90
9043;DHT22;4556;49.150;8.808;2023-07-09T01:57:21;17.30;99.90
9043;DHT22;4556;49.150;8.808;2023-07-09T01:59:49;17.30;99.90
9043;DHT22;4556;49.150;8.808;2023-07-09T02:02:18;17.20;99.90
9043;DHT22;4556;49.150;8.808;2023-07-09T02:05:00;17.20;99.90
9043;DHT22;4556;49.150;8.808;2023-07-09T02:08:18;17.10;99.90
9043;DHT22;4556;49.150;8.808;2023-07-09T02:18:00;17.00;99.90
9043;DHT22;4556;49.150;8.808;2023-07-09T02:20:35;17.10;99.90
9043;DHT22;4556;49.150;8.808;2023-07-09T02:23:02;18.30;99.90
9043;DHT22;4556;49.150;8.808;2023-07-09T02:25:33;18.00;99.90
9043;DHT22;4556;49.150;8.808;2023-07-09T02:28:01;17.20;99.90
9043;DHT22;4556;49.150;8.808;2023-07-09T02:30:32;18.00;99.90
9043;DHT22;4556;49.150;8.808;2023-07-09T02:33:02;16.80;99.90
9043;DHT22;4556;49.150;8.808;2023-07-09T02:35:29;16.80;99.90
9043;DHT22;4556;49.150;8.808;2023-07-09T02:44:59;16.90;99.90
9043;DHT22;4556;49.150;8.808;2023-07-09T02:47:28;16.10;99.90
9043;DHT22;4556;49.150;8.808;2023-07-09T02:50:01;17.10;99.90
9043;DHT22;4556;49.150;8.808;2023-07-09T02:55:48;17.40;99.90
9043;DHT22;4556;49.150;8.808;2023-07-09T02:59:22;17.80;99.90
9043;DHT22;4556;49.150;8.808;2023-07-09T03:11:49;17.30;99.90
9043;DHT22;4556;49.150;8.808;2023-07-09T03:15:15;17.30;99.90
9043;DHT22;4556;49.150;8.808;2023-07-09T03:20:26;17.30;99.90
9043;DHT22;4556;49.150;8.808;2023-07-09T03:21:33;16.30;99.90
9043;DHT22;4556;49.150;8.808;2023-07-09T03:24:13;17.40;99.90
9043;DHT22;4556;49.150;8.808;2023-07-09T03:27:38;16.70;99.90
9043;DHT22;4556;49.150;8.808;2023-07-09T03:30:33;18.80;99.90
9043;DHT22;4556;49.150;8.808;2023-07-09T03:33:00;17.80;99.90
9043;DHT22;4556;49.150;8.808;2023-07-09T03:35:29;17.80;99.90
9043;DHT22;4556;49.150;8.808;2023-07-09T03:37:58;17.70;99.90
9043;DHT22;4556;49.150;8.808;2023-07-09T03:40:27;17.70;99.90
9043;DHT22;4556;49.150;8.808;2023-07-09T03:43:00;17.60;99.90
9043;DHT22;4556;49.150;8.808;2023-07-09T03:52:54;17.10;99.90
9043;DHT22;4556;49.150;8.808;2023-07-09T03:59:10;17.90;99.90
9043;DHT22;4556;49.150;8.808;2023-07-09T04:02:24;16.80;99.90
9043;DHT22;4556;49.150;8.808;2023-07-09T04:08:39;16.70;99.90
9043;DHT22;4556;49.150;8.808;2023-07-09T04:11:09;16.70;99.90
9043;DHT22;4556;49.150;8.808;2023-07-09T04:13:38;16.70;99.90
9043;DHT22;4556;49.150;8.808;2023-07-09T04:22:53;16.90;99.90
9043;DHT22;4556;49.150;8.808;2023-07-09T04:25:48;16.90;99.90
9043;DHT22;4556;49.150;8.808;2023-07-09T04:49:19;18.20;99.90
9043;DHT22;4556;49.150;8.808;2023-07-09T04:55:59;18.60;99.90
9043;DHT22;4556;49.150;8.808;2023-07-09T04:58:49;18.60;99.90
9043;DHT22;4556;49.150;8.808;2023-07-09T05:01:16;20.40;99.90
9043;DHT22;4556;49.150;8.808;2023-07-09T05:13:58;19.60;99.90
9043;DHT22;4556;49.150;8.808;2023-07-09T05:17:28;19.80;99.90
9043;DHT22;4556;49.150;8.808;2023-07-09T05:20:20;20.10;99.90
9043;DHT22;4556;49.150;8.808;2023-07-09T05:22:54;20.10;99.90
9043;DHT22;4556;49.150;8.808;2023-07-09T05:25:21;20.80;99.90
9043;DHT22;4556;49.150;8.808;2023-07-09T05:28:07;21.10;99.90
9043;DHT22;4556;49.150;8.808;2023-07-09T05:30:53;21.20;99.90
9043;DHT22;4556;49.150;8.808;2023-07-09T05:33:31;21.30;99.90
9043;DHT22;4556;49.150;8.808;2023-07-09T05:40:26;22.00;99.90
9043;DHT22;4556;49.150;8.808;2023-07-09T05:43:09;22.20;99.90
9043;DHT22;4556;49.150;8.808;2023-07-09T05:45:40;22.30;99.90
9043;DHT22;4556;49.150;8.808;2023-07-09T05:51:51;22.50;99.90
9043;DHT22;4556;49.150;8.808;2023-07-09T05:54:39;23.10;99.90
9043;DHT22;4556;49.150;8.808;2023-07-09T05:57:06;23.20;99.90
9043;DHT22;4556;49.150;8.808;2023-07-09T06:03:50;23.60;99.90
9043;DHT22;4556;49.150;8.808;2023-07-09T06:06:17;24.00;99.90
9043;DHT22;4556;49.150;8.808;2023-07-09T06:08:46;23.90;99.90
9043;DHT22;4556;49.150;8.808;2023-07-09T06:11:13;24.00;99.90
9043;DHT22;4556;49.150;8.808;2023-07-09T06:13:40;24.20;99.90
9043;DHT22;4556;49.150;8.808;2023-07-09T06:16:07;24.30;99.90
9043;DHT22;4556;49.150;8.808;2023-07-09T06:18:34;24.50;99.90
9043;DHT22;4556;49.150;8.808;2023-07-09T06:21:03;24.70;99.90
9043;DHT22;4556;49.150;8.808;2023-07-09T06:30:24;25.00;99.90
9043;DHT22;4556;49.150;8.808;2023-07-09T06:32:53;25.20;99.90
9043;DHT22;4556;49.150;8.808;2023-07-09T06:35:19;25.30;99.90
9043;DHT22;4556;49.150;8.808;2023-07-09T06:37:46;25.50;99.90
9043;DHT22;4556;49.150;8.808;2023-07-09T06:40:13;25.70;99.90
9043;DHT22;4556;49.150;8.808;2023-07-09T06:42:40;25.80;99.90
9043;DHT22;4556;49.150;8.808;2023-07-09T06:45:06;26.00;99.90
9043;DHT22;4556;49.150;8.808;2023-07-09T06:54:47;26.40;99.90
9043;DHT22;4556;49.150;8.808;2023-07-09T06:57:36;26.60;99.90
9043;DHT22;4556;49.150;8.808;2023-07-09T07:01:43;26.20;99.90
9043;DHT22;4556;49.150;8.808;2023-07-09T07:03:51;27.00;99.90
9043;DHT22;4556;49.150;8.808;2023-07-09T07:06:18;27.30;99.90
9043;DHT22;4556;49.150;8.808;2023-07-09T07:08:45;27.50;99.90
9043;DHT22;4556;49.150;8.808;2023-07-09T07:11:14;27.80;99.90
9043;DHT22;4556;49.150;8.808;2023-07-09T07:13:41;27.90;99.90
9043;DHT22;4556;49.150;8.808;2023-07-09T07:16:09;27.90;99.90
9043;DHT22;4556;49.150;8.808;2023-07-09T07:18:47;28.20;99.90
9043;DHT22;4556;49.150;8.808;2023-07-09T07:21:14;28.20;99.90
9043;DHT22;4556;49.150;8.808;2023-07-09T07:23:40;28.30;99.90
9043;DHT22;4556;49.150;8.808;2023-07-09T07:26:07;28.50;99.90
9043;DHT22;4556;49.150;8.808;2023-07-09T07:28:36;28.80;99.90
9043;DHT22;4556;49.150;8.808;2023-07-09T07:31:05;29.00;99.90
9043;DHT22;4556;49.150;8.808;2023-07-09T07:36:40;29.10;99.90
9043;DHT22;4556;49.150;8.808;2023-07-09T07:40:10;29.20;99.90
9043;DHT22;4556;49.150;8.808;2023-07-09T07:42:13;29.20;99.90
9043;DHT22;4556;49.150;8.808;2023-07-09T07:44:41;29.20;99.90
9043;DHT22;4556;49.150;8.808;2023-07-09T07:47:14;29.60;99.90
9043;DHT22;4556;49.150;8.808;2023-07-09T07:49:41;29.80;99.90
9043;DHT22;4556;49.150;8.808;2023-07-09T07:52:08;30.00;99.90
9043;DHT22;4556;49.150;8.808;2023-07-09T07:54:36;30.00;99.90
9043;DHT22;4556;49.150;8.808;2023-07-09T07:57:03;30.10;99.90
9043;DHT22;4556;49.150;8.808;2023-07-09T07:59:30;30.30;99.90
9043;DHT22;4556;49.150;8.808;2023-07-09T08:02:02;30.20;99.90
9043;DHT22;4556;49.150;8.808;2023-07-09T08:04:29;30.20;99.90
9043;DHT22;4556;49.150;8.808;2023-07-09T08:06:56;30.50;99.90
9043;DHT22;4556;49.150;8.808;2023-07-09T08:09:24;30.70;99.90
9043;DHT22;4556;49.150;8.808;2023-07-09T08:11:51;30.90;99.90
9043;DHT22;4556;49.150;8.808;2023-07-09T08:14:18;31.10;99.90
9043;DHT22;4556;49.150;8.808;2023-07-09T08:16:46;31.30;99.90
9043;DHT22;4556;49.150;8.808;2023-07-09T08:19:19;31.20;99.90
9043;DHT22;4556;49.150;8.808;2023-07-09T08:21:46;31.20;99.90
9043;DHT22;4556;49.150;8.808;2023-07-09T08:24:13;31.40;99.90
9043;DHT22;4556;49.150;8.808;2023-07-09T08:31:54;31.60;99.90
9043;DHT22;4556;49.150;8.808;2023-07-09T08:33:47;31.70;99.90
9043;DHT22;4556;49.150;8.808;2023-07-09T08:36:30;31.80;99.90
9043;DHT22;4556;49.150;8.808;2023-07-09T08:38:57;31.80;99.90
9043;DHT22;4556;49.150;8.808;2023-07-09T08:41:54;31.80;99.90
9043;DHT22;4556;49.150;8.808;2023-07-09T08:44:39;31.90;99.90
9043;DHT22;4556;49.150;8.808;2023-07-09T08:47:16;32.00;99.90
9043;DHT22;4556;49.150;8.808;2023-07-09T08:49:46;32.30;99.90
9043;DHT22;4556;49.150;8.808;2023-07-09T08:52:30;31.70;99.90
9043;DHT22;4556;49.150;8.808;2023-07-09T08:55:04;32.30;99.90
9043;DHT22;4556;49.150;8.808;2023-07-09T08:57:36;32.50;99.90
9043;DHT22;4556;49.150;8.808;2023-07-09T09:00:12;32.50;99.90
9043;DHT22;4556;49.150;8.808;2023-07-09T09:02:46;32.70;99.90
9043;DHT22;4556;49.150;8.808;2023-07-09T09:05:18;32.70;99.90
9043;DHT22;4556;49.150;8.808;2023-07-09T09:07:57;32.60;99.90
9043;DHT22;4556;49.150;8.808;2023-07-09T09:10:46;32.70;99.90
9043;DHT22;4556;49.150;8.808;2023-07-09T09:13:15;32.90;99.90
9043;DHT22;4556;49.150;8.808;2023-07-09T09:15:44;32.90;99.90
9043;DHT22;4556;49.150;8.808;2023-07-09T09:18:20;32.90;99.90
9043;DHT22;4556;49.150;8.808;2023-07-09T09:20:53;32.70;99.90
9043;DHT22;4556;49.150;8.808;2023-07-09T09:27:37;32.90;99.90
9043;DHT22;4556;49.150;8.808;2023-07-09T09:33:50;33.20;99.90
9043;DHT22;4556;49.150;8.808;2023-07-09T09:36:20;33.40;99.80
9043;DHT22;4556;49.150;8.808;2023-07-09T09:38:49;33.40;97.90
9043;DHT22;4556;49.150;8.808;2023-07-09T09:41:20;33.40;99.90
9043;DHT22;4556;49.150;8.808;2023-07-09T09:43:48;32.80;99.90
9043;DHT22;4556;49.150;8.808;2023-07-09T09:46:18;33.30;97.80
9043;DHT22;4556;49.150;8.808;2023-07-09T09:48:48;33.20;98.40
9043;DHT22;4556;49.150;8.808;2023-07-09T09:51:16;33.30;98.60
9043;DHT22;4556;49.150;8.808;2023-07-09T09:53:49;33.30;98.40
9043;DHT22;4556;49.150;8.808;2023-07-09T09:56:19;33.50;98.00
9043;DHT22;4556;49.150;8.808;2023-07-09T09:58:52;33.50;99.50
9043;DHT22;4556;49.150;8.808;2023-07-09T10:01:20;33.50;99.40
9043;DHT22;4556;49.150;8.808;2023-07-09T10:03:51;33.30;99.30
9043;DHT22;4556;49.150;8.808;2023-07-09T10:06:28;33.50;97.40
9043;DHT22;4556;49.150;8.808;2023-07-09T10:09:02;33.70;97.80
9043;DHT22;4556;49.150;8.808;2023-07-09T10:11:43;33.80;98.80
9043;DHT22;4556;49.150;8.808;2023-07-09T10:14:25;33.90;99.10
9043;DHT22;4556;49.150;8.808;2023-07-09T10:16:59;34.00;96.00
9043;DHT22;4556;49.150;8.808;2023-07-09T10:19:34;34.00;96.50
9043;DHT22;4556;49.150;8.808;2023-07-09T10:22:05;33.80;97.00
9043;DHT22;4556;49.150;8.808;2023-07-09T10:24:42;33.90;96.30
9043;DHT22;4556;49.150;8.808;2023-07-09T10:27:14;33.90;95.60
9043;DHT22;4556;49.150;8.808;2023-07-09T10:29:54;33.70;94.70
9043;DHT22;4556;49.150;8.808;2023-07-09T10:32:36;33.70;95.80
9043;DHT22;4556;49.150;8.808;2023-07-09T10:35:13;33.80;95.20
9043;DHT22;4556;49.150;8.808;2023-07-09T10:37:52;34.00;95.80
9043;DHT22;4556;49.150;8.808;2023-07-09T10:40:28;33.90;95.10
9043;DHT22;4556;49.150;8.808;2023-07-09T10:42:59;33.80;95.60
9043;DHT22;4556;49.150;8.808;2023-07-09T10:45:29;33.90;95.90
9043;DHT22;4556;49.150;8.808;2023-07-09T10:48:00;33.90;95.20
9043;DHT22;4556;49.150;8.808;2023-07-09T10:50:32;34.00;96.00
9043;DHT22;4556;49.150;8.808;2023-07-09T10:53:05;34.00;93.90
9043;DHT22;4556;49.150;8.808;2023-07-09T10:55:41;34.00;94.30
9043;DHT22;4556;49.150;8.808;2023-07-09T10:58:29;34.10;94.80
9043;DHT22;4556;49.150;8.808;2023-07-09T11:00:59;34.00;93.00
9043;DHT22;4556;49.150;8.808;2023-07-09T11:03:35;34.00;93.40
9043;DHT22;4556;49.150;8.808;2023-07-09T11:06:05;34.00;93.40
9043;DHT22;4556;49.150;8.808;2023-07-09T11:08:37;34.20;93.30
9043;DHT22;4556;49.150;8.808;2023-07-09T11:11:10;34.20;94.60
9043;DHT22;4556;49.150;8.808;2023-07-09T11:13:41;34.40;92.70
9043;DHT22;4556;49.150;8.808;2023-07-09T11:16:12;34.20;92.40
9043;DHT22;4556;49.150;8.808;2023-07-09T11:18:40;34.20;92.00
9043;DHT22;4556;49.150;8.808;2023-07-09T11:21:16;34.10;92.10
9043;DHT22;4556;49.150;8.808;2023-07-09T11:23:46;34.00;92.10
9043;DHT22;4556;49.150;8.808;2023-07-09T11:26:23;34.10;92.20
9043;DHT22;4556;49.150;8.808;2023-07-09T11:28:53;34.20;91.60
9043;DHT22;4556;49.150;8.808;2023-07-09T11:31:23;34.30;94.70
9043;DHT22;4556;49.150;8.808;2023-07-09T11:34:00;34.30;91.30
9043;DHT22;4556;49.150;8.808;2023-07-09T11:36:29;34.40;94.10
9043;DHT22;4556;49.150;8.808;2023-07-09T11:38:56;34.50;90.20
9043;DHT22;4556;49.150;8.808;2023-07-09T11:41:43;34.50;89.30
9043;DHT22;4556;49.150;8.808;2023-07-09T11:44:16;34.40;91.50
9043;DHT22;4556;49.150;8.808;2023-07-09T11:46:52;34.30;91.50
9043;DHT22;4556;49.150;8.808;2023-07-09T11:49:24;34.50;90.70
9043;DHT22;4556;49.150;8.808;2023-07-09T11:51:55;34.50;91.50
9043;DHT22;4556;49.150;8.808;2023-07-09T11:54:24;34.60;90.30
9043;DHT22;4556;49.150;8.808;2023-07-09T11:56:56;34.50;90.70
9043;DHT22;4556;49.150;8.808;2023-07-09T11:59:23;34.50;89.00
9043;DHT22;4556;49.150;8.808;2023-07-09T12:01:51;34.50;89.90
9043;DHT22;4556;49.150;8.808;2023-07-09T12:04:22;34.40;86.70
9043;DHT22;4556;49.150;8.808;2023-07-09T12:06:58;34.50;86.90
9043;DHT22;4556;49.150;8.808;2023-07-09T12:09:31;34.50;88.90
9043;DHT22;4556;49.150;8.808;2023-07-09T12:12:00;34.50;92.20
9043;DHT22;4556;49.150;8.808;2023-07-09T12:14:27;34.60;91.80
9043;DHT22;4556;49.150;8.808;2023-07-09T12:16:55;34.70;90.00
9043;DHT22;4556;49.150;8.808;2023-07-09T12:19:23;34.70;86.30
9043;DHT22;4556;49.150;8.808;2023-07-09T12:21:53;34.90;88.40
9043;DHT22;4556;49.150;8.808;2023-07-09T12:24:25;34.80;90.80
9043;DHT22;4556;49.150;8.808;2023-07-09T12:26:53;35.00;89.20
9043;DHT22;4556;49.150;8.808;2023-07-09T12:29:24;35.10;82.00
9043;DHT22;4556;49.150;8.808;2023-07-09T12:31:51;35.00;87.20
9043;DHT22;4556;49.150;8.808;2023-07-09T12:34:18;35.10;84.30
9043;DHT22;4556;49.150;8.808;2023-07-09T12:36:48;34.90;87.00
9043;DHT22;4556;49.150;8.808;2023-07-09T12:39:19;35.00;81.00
9043;DHT22;4556;49.150;8.808;2023-07-09T12:41:49;34.90;82.50
9043;DHT22;4556;49.150;8.808;2023-07-09T12:44:18;34.70;85.20
9043;DHT22;4556;49.150;8.808;2023-07-09T12:46:48;34.80;82.00
9043;DHT22;4556;49.150;8.808;2023-07-09T12:49:22;34.90;85.70
9043;DHT22;4556;49.150;8.808;2023-07-09T12:51:50;34.80;83.00
9043;DHT22;4556;49.150;8.808;2023-07-09T12:54:19;34.80;86.30
9043;DHT22;4556;49.150;8.808;2023-07-09T12:56:46;34.70;83.10
9043;DHT22;4556;49.150;8.808;2023-07-09T12:59:19;34.80;85.50
9043;DHT22;4556;49.150;8.808;2023-07-09T13:01:54;34.90;82.80
9043;DHT22;4556;49.150;8.808;2023-07-09T13:04:28;34.90;88.20
9043;DHT22;4556;49.150;8.808;2023-07-09T13:06:56;34.80;82.30
9043;DHT22;4556;49.150;8.808;2023-07-09T13:09:26;34.90;80.60
9043;DHT22;4556;49.150;8.808;2023-07-09T13:11:54;34.80;84.70
9043;DHT22;4556;49.150;8.808;2023-07-09T13:14:24;34.90;80.90
9043;DHT22;4556;49.150;8.808;2023-07-09T13:17:01;35.00;81.60
9043;DHT22;4556;49.150;8.808;2023-07-09T13:19:41;35.00;84.00
9043;DHT22;4556;49.150;8.808;2023-07-09T13:22:12;34.90;79.30
9043;DHT22;4556;49.150;8.808;2023-07-09T13:24:44;35.10;80.70
9043;DHT22;4556;49.150;8.808;2023-07-09T13:27:36;35.10;79.50
9043;DHT22;4556;49.150;8.808;2023-07-09T13:30:07;35.10;80.90
9043;DHT22;4556;49.150;8.808;2023-07-09T13:35:49;36.00;80.60
9043;DHT22;4556;49.150;8.808;2023-07-09T13:38:21;34.70;77.20
9043;DHT22;4556;49.150;8.808;2023-07-09T13:44:28;34.60;79.30
9043;DHT22;4556;49.150;8.808;2023-07-09T13:46:56;34.50;80.40
9043;DHT22;4556;49.150;8.808;2023-07-09T13:49:25;34.50;79.80
9043;DHT22;4556;49.150;8.808;2023-07-09T13:52:04;34.40;78.00
9043;DHT22;4556;49.150;8.808;2023-07-09T13:54:32;34.40;78.10
9043;DHT22;4556;49.150;8.808;2023-07-09T13:57:03;34.30;88.40
9043;DHT22;4556;49.150;8.808;2023-07-09T13:59:31;34.40;79.10
9043;DHT22;4556;49.150;8.808;2023-07-09T14:05:07;34.40;79.60
9043;DHT22;4556;49.150;8.808;2023-07-09T14:07:38;34.30;79.30
9043;DHT22;4556;49.150;8.808;2023-07-09T14:10:09;34.50;78.90
9043;DHT22;4556;49.150;8.808;2023-07-09T14:12:39;34.60;78.90
9043;DHT22;4556;49.150;8.808;2023-07-09T14:18:51;34.50;78.90
9043;DHT22;4556;49.150;8.808;2023-07-09T14:28:21;34.50;79.50
9043;DHT22;4556;49.150;8.808;2023-07-09T14:30:49;34.50;85.80
9043;DHT22;4556;49.150;8.808;2023-07-09T14:33:18;34.30;83.70
9043;DHT22;4556;49.150;8.808;2023-07-09T14:35:47;34.20;88.30
9043;DHT22;4556;49.150;8.808;2023-07-09T14:38:18;34.10;85.20
9043;DHT22;4556;49.150;8.808;2023-07-09T14:40:46;34.10;85.20
9043;DHT22;4556;49.150;8.808;2023-07-09T14:43:14;34.20;89.50
9043;DHT22;4556;49.150;8.808;2023-07-09T14:45:43;34.10;91.70
9043;DHT22;4556;49.150;8.808;2023-07-09T14:48:11;34.20;85.00
9043;DHT22;4556;49.150;8.808;2023-07-09T14:50:38;34.20;82.10
9043;DHT22;4556;49.150;8.808;2023-07-09T14:53:12;34.40;80.50
9043;DHT22;4556;49.150;8.808;2023-07-09T14:55:39;34.70;81.70
9043;DHT22;4556;49.150;8.808;2023-07-09T14:58:13;34.70;81.20
9043;DHT22;4556;49.150;8.808;2023-07-09T15:00:42;34.90;79.40
9043;DHT22;4556;49.150;8.808;2023-07-09T15:03:18;34.80;76.80
9043;DHT22;4556;49.150;8.808;2023-07-09T15:05:45;34.70;82.50
9043;DHT22;4556;49.150;8.808;2023-07-09T15:08:13;34.70;77.70
9043;DHT22;4556;49.150;8.808;2023-07-09T15:10:50;34.70;79.20
9043;DHT22;4556;49.150;8.808;2023-07-09T15:13:27;34.80;75.40
9043;DHT22;4556;49.150;8.808;2023-07-09T15:19:36;35.00;75.60
9043;DHT22;4556;49.150;8.808;2023-07-09T15:22:36;35.00;78.20
9043;DHT22;4556;49.150;8.808;2023-07-09T15:25:37;34.90;79.20
9043;DHT22;4556;49.150;8.808;2023-07-09T15:28:35;34.90;75.50
9043;DHT22;4556;49.150;8.808;2023-07-09T15:37:47;34.70;76.40
9043;DHT22;4556;49.150;8.808;2023-07-09T15:40:44;34.70;76.10
9043;DHT22;4556;49.150;8.808;2023-07-09T15:43:47;34.70;79.00
9043;DHT22;4556;49.150;8.808;2023-07-09T15:46:21;34.90;74.50
9043;DHT22;4556;49.150;8.808;2023-07-09T15:49:20;34.90;76.60
9043;DHT22;4556;49.150;8.808;2023-07-09T16:10:19;34.00;82.10
9043;DHT22;4556;49.150;8.808;2023-07-09T16:13:39;33.80;82.10
9043;DHT22;4556;49.150;8.808;2023-07-09T16:19:22;33.60;77.10
9043;DHT22;4556;49.150;8.808;2023-07-09T16:22:31;33.50;78.80
9043;DHT22;4556;49.150;8.808;2023-07-09T16:25:15;33.40;80.80
9043;DHT22;4556;49.150;8.808;2023-07-09T16:27:44;33.50;79.90
9043;DHT22;4556;49.150;8.808;2023-07-09T16:30:13;33.60;81.50
9043;DHT22;4556;49.150;8.808;2023-07-09T16:32:43;33.70;89.70
9043;DHT22;4556;49.150;8.808;2023-07-09T16:35:15;33.80;93.50
9043;DHT22;4556;49.150;8.808;2023-07-09T16:37:48;33.70;92.70
9043;DHT22;4556;49.150;8.808;2023-07-09T16:40:19;33.60;88.70
9043;DHT22;4556;49.150;8.808;2023-07-09T16:42:51;33.50;85.40
9043;DHT22;4556;49.150;8.808;2023-07-09T16:45:25;33.40;85.60
9043;DHT22;4556;49.150;8.808;2023-07-09T16:48:02;33.50;82.70
9043;DHT22;4556;49.150;8.808;2023-07-09T16:50:31;33.50;90.70
9043;DHT22;4556;49.150;8.808;2023-07-09T16:53:12;33.40;89.90
9043;DHT22;4556;49.150;8.808;2023-07-09T16:55:44;33.30;93.70
9043;DHT22;4556;49.150;8.808;2023-07-09T16:58:24;33.00;91.10
9043;DHT22;4556;49.150;8.808;2023-07-09T17:00:53;33.00;91.30
9043;DHT22;4556;49.150;8.808;2023-07-09T17:03:20;32.90;91.40
9043;DHT22;4556;49.150;8.808;2023-07-09T17:05:46;32.80;90.50
9043;DHT22;4556;49.150;8.808;2023-07-09T17:08:13;32.80;88.90
9043;DHT22;4556;49.150;8.808;2023-07-09T17:10:42;33.00;86.10
9043;DHT22;4556;49.150;8.808;2023-07-09T17:13:13;33.10;86.20
9043;DHT22;4556;49.150;8.808;2023-07-09T17:15:43;33.10;83.90
9043;DHT22;4556;49.150;8.808;2023-07-09T17:18:18;33.30;84.20
9043;DHT22;4556;49.150;8.808;2023-07-09T17:20:46;33.20;87.10
9043;DHT22;4556;49.150;8.808;2023-07-09T17:23:13;33.10;88.40
9043;DHT22;4556;49.150;8.808;2023-07-09T17:25:42;32.80;90.90
9043;DHT22;4556;49.150;8.808;2023-07-09T17:28:14;32.60;88.70
9043;DHT22;4556;49.150;8.808;2023-07-09T17:30:41;32.40;92.00
9043;DHT22;4556;49.150;8.808;2023-07-09T17:33:08;32.40;90.80
9043;DHT22;4556;49.150;8.808;2023-07-09T17:35:36;32.40;94.10
9043;DHT22;4556;49.150;8.808;2023-07-09T17:38:03;32.20;95.00
9043;DHT22;4556;49.150;8.808;2023-07-09T17:40:33;32.00;95.30
9043;DHT22;4556;49.150;8.808;2023-07-09T17:43:03;31.80;95.90
9043;DHT22;4556;49.150;8.808;2023-07-09T17:45:35;31.60;97.40
9043;DHT22;4556;49.150;8.808;2023-07-09T17:48:04;31.50;99.00
9043;DHT22;4556;49.150;8.808;2023-07-09T17:50:31;31.50;98.70
9043;DHT22;4556;49.150;8.808;2023-07-09T17:52:58;31.40;99.90
9043;DHT22;4556;49.150;8.808;2023-07-09T17:55:25;31.30;99.90
9043;DHT22;4556;49.150;8.808;2023-07-09T17:57:53;31.10;99.30
9043;DHT22;4556;49.150;8.808;2023-07-09T18:04:13;30.60;98.30
9043;DHT22;4556;49.150;8.808;2023-07-09T18:06:41;30.30;99.90
9043;DHT22;4556;49.150;8.808;2023-07-09T18:09:14;30.30;98.50
9043;DHT22;4556;49.150;8.808;2023-07-09T18:11:43;30.10;99.20
9043;DHT22;4556;49.150;8.808;2023-07-09T18:14:19;30.10;96.60
9043;DHT22;4556;49.150;8.808;2023-07-09T18:16:47;30.00;95.90
9043;DHT22;4556;49.150;8.808;2023-07-09T18:19:22;29.90;97.80
9043;DHT22;4556;49.150;8.808;2023-07-09T18:21:52;29.90;98.60
9043;DHT22;4556;49.150;8.808;2023-07-09T18:24:21;29.60;99.80
9043;DHT22;4556;49.150;8.808;2023-07-09T18:26:48;29.70;98.90
9043;DHT22;4556;49.150;8.808;2023-07-09T18:29:26;29.50;99.90
9043;DHT22;4556;49.150;8.808;2023-07-09T18:31:56;29.60;99.90
9043;DHT22;4556;49.150;8.808;2023-07-09T18:34:26;29.50;99.90
9043;DHT22;4556;49.150;8.808;2023-07-09T18:36:53;29.20;99.90
9043;DHT22;4556;49.150;8.808;2023-07-09T18:39:20;29.20;99.90
9043;DHT22;4556;49.150;8.808;2023-07-09T18:41:47;29.00;99.90
9043;DHT22;4556;49.150;8.808;2023-07-09T18:44:16;28.90;99.90
9043;DHT22;4556;49.150;8.808;2023-07-09T18:46:44;28.80;99.90
9043;DHT22;4556;49.150;8.808;2023-07-09T18:49:11;28.70;99.90
9043;DHT22;4556;49.150;8.808;2023-07-09T18:51:53;28.50;99.90
9043;DHT22;4556;49.150;8.808;2023-07-09T18:54:25;28.30;99.90
9043;DHT22;4556;49.150;8.808;2023-07-09T18:56:55;28.10;99.90
9043;DHT22;4556;49.150;8.808;2023-07-09T18:59:25;28.10;99.90
9043;DHT22;4556;49.150;8.808;2023-07-09T19:01:52;28.00;99.90
9043;DHT22;4556;49.150;8.808;2023-07-09T19:04:21;28.00;99.90
9043;DHT22;4556;49.150;8.808;2023-07-09T19:07:03;28.10;99.90
9043;DHT22;4556;49.150;8.808;2023-07-09T19:09:45;28.00;99.90
9043;DHT22;4556;49.150;8.808;2023-07-09T19:12:26;27.90;99.90
9043;DHT22;4556;49.150;8.808;2023-07-09T19:14:54;27.70;99.90
9043;DHT22;4556;49.150;8.808;2023-07-09T19:17:27;27.50;99.90
9043;DHT22;4556;49.150;8.808;2023-07-09T19:20:15;27.30;99.90
9043;DHT22;4556;49.150;8.808;2023-07-09T19:22:44;27.30;99.90
9043;DHT22;4556;49.150;8.808;2023-07-09T19:25:16;27.20;99.90
9043;DHT22;4556;49.150;8.808;2023-07-09T19:27:55;27.10;99.90
9043;DHT22;4556;49.150;8.808;2023-07-09T19:30:27;27.00;99.90
9043;DHT22;4556;49.150;8.808;2023-07-09T19:32:58;27.00;99.90
9043;DHT22;4556;49.150;8.808;2023-07-09T19:35:27;26.80;99.90
9043;DHT22;4556;49.150;8.808;2023-07-09T19:38:10;26.50;99.90
9043;DHT22;4556;49.150;8.808;2023-07-09T19:40:37;26.30;99.90
9043;DHT22;4556;49.150;8.808;2023-07-09T19:46:38;26.00;99.90
9043;DHT22;4556;49.150;8.808;2023-07-09T19:49:09;25.90;99.90
9043;DHT22;4556;49.150;8.808;2023-07-09T19:51:36;25.80;99.90
9043;DHT22;4556;49.150;8.808;2023-07-09T19:54:11;25.80;99.90
9043;DHT22;4556;49.150;8.808;2023-07-09T19:56:41;25.60;99.90
9043;DHT22;4556;49.150;8.808;2023-07-09T19:59:14;25.40;99.90
9043;DHT22;4556;49.150;8.808;2023-07-09T20:01:41;25.10;99.90
9043;DHT22;4556;49.150;8.808;2023-07-09T20:04:09;25.00;99.90
9043;DHT22;4556;49.150;8.808;2023-07-09T20:06:39;24.80;99.90
9043;DHT22;4556;49.150;8.808;2023-07-09T20:09:14;24.60;99.90
9043;DHT22;4556;49.150;8.808;2023-07-09T20:11:43;24.40;99.90
9043;DHT22;4556;49.150;8.808;2023-07-09T20:14:16;24.20;99.90
9043;DHT22;4556;49.150;8.808;2023-07-09T20:16:52;24.30;99.90
9043;DHT22;4556;49.150;8.808;2023-07-09T20:19:19;24.10;99.90
9043;DHT22;4556;49.150;8.808;2023-07-09T20:21:48;23.90;99.90
9043;DHT22;4556;49.150;8.808;2023-07-09T20:24:18;23.60;99.90
9043;DHT22;4556;49.150;8.808;2023-07-09T20:26:46;23.60;99.90
9043;DHT22;4556;49.150;8.808;2023-07-09T20:29:15;23.40;99.90
9043;DHT22;4556;49.150;8.808;2023-07-09T20:31:43;23.30;99.90
9043;DHT22;4556;49.150;8.808;2023-07-09T20:34:17;23.10;99.90